Baileyville, Maine
Current Conditions -  °F | °C
As of 2:00 AM on Saturday 29 Nov 2014 (Local Time) from CYFC Reporting Station
Clear Clear  
Wind Chill:   Ceiling: Unl
Heat Index: 14°   Visibility: 9mi
Dew Point: 12°   Wind: 5mph
Humidity: 93%   Direction: 270°W
Pressure: 30.11"   Gusts: NA
Location:  45.15°N, 67.41°W
Report Text: CYFC 290700Z AUTO 27004KT 9SM CLR M10/M11 A3011 RMK SLP199
Loading
Personal Weather Stations






























Interactive Weather Map New forecast layout! Learn more

10-Day Weather Forecast

Advertisements
Track Severe Weather on mobile